Time;durP1;ratioP1;P1;durP2;ratioP2;P2;SDS_P1;SDS_P2;PMS_P1;PMS_P2;Temp;Humidity;BMP_temperature;BMP_pressure;BME280_temperature;BME280_humidity;BME280_pressure;Samples;Min_cycle;Max_cycle;Signal;HPM_P1;HPM_P2
2022/11/14 00:02:11;;;;;;;54.20;16.20;;;;;;;2.07;100.00;95551.78;5000020;28;20073;-71
2022/11/14 00:04:37;;;;;;;162.63;18.38;;;;;;;1.94;100.00;95551.88;4975061;28;20096;-71
2022/11/14 00:07:02;;;;;;;126.70;18.27;;;;;;;1.93;100.00;95537.34;4978046;28;20057;-71
2022/11/14 00:09:28;;;;;;;102.00;16.48;;;;;;;1.93;100.00;95534.75;4988900;28;20512;-71
2022/11/14 00:11:55;;;;;;;84.70;17.45;;;;;;;1.94;100.00;95528.53;4981283;28;20412;-71
2022/11/14 00:14:20;;;;;;;72.25;15.45;;;;;;;2.01;100.00;95532.66;4961440;28;20130;-72
2022/11/14 00:16:46;;;;;;;140.50;16.60;;;;;;;1.94;100.00;95525.94;4983020;28;20109;-71
2022/11/14 00:19:12;;;;;;;72.63;15.85;;;;;;;2.01;100.00;95521.47;4997659;28;20058;-71
2022/11/14 00:21:38;;;;;;;196.90;17.80;;;;;;;1.86;100.00;95519.22;4990123;28;20424;-71
2022/11/14 00:24:04;;;;;;;134.80;17.33;;;;;;;1.96;100.00;95529.13;4992076;28;20077;-71
2022/11/14 00:26:29;;;;;;;158.32;18.02;;;;;;;1.99;100.00;95520.91;4974120;28;20070;-72
2022/11/14 00:28:55;;;;;;;153.70;17.85;;;;;;;1.97;100.00;95525.50;4981826;28;20050;-71
2022/11/14 00:31:21;;;;;;;121.38;16.85;;;;;;;1.96;100.00;95514.34;4989845;28;20049;-71
2022/11/14 00:33:46;;;;;;;117.57;18.48;;;;;;;2.04;100.00;95513.25;4991607;28;20054;-71
2022/11/14 00:36:12;;;;;;;108.65;16.88;;;;;;;2.05;100.00;95517.44;4983389;28;20054;-71
2022/11/14 00:38:37;;;;;;;64.00;16.27;;;;;;;2.14;100.00;95521.38;4991702;28;20641;-71
2022/11/14 00:41:03;;;;;;;64.68;16.30;;;;;;;2.22;100.00;95518.47;4988566;28;20118;-71
2022/11/14 00:43:28;;;;;;;55.08;16.80;;;;;;;2.13;100.00;95530.16;4987669;28;20043;-71
2022/11/14 00:45:54;;;;;;;83.50;16.85;;;;;;;2.11;100.00;95537.34;4978072;28;20066;-71
2022/11/14 00:48:19;;;;;;;144.60;19.38;;;;;;;1.99;100.00;95539.06;4972693;28;20047;-71
2022/11/14 00:50:45;;;;;;;46.83;16.23;;;;;;;2.08;100.00;95537.78;5002096;28;20041;-71
2022/11/14 00:53:10;;;;;;;78.40;15.23;;;;;;;1.97;100.00;95541.06;4999566;28;20043;-71
2022/11/14 00:55:36;;;;;;;82.05;15.27;;;;;;;1.95;100.00;95527.53;4982061;28;20714;-71
2022/11/14 00:58:02;;;;;;;66.85;15.07;;;;;;;1.82;100.00;95524.03;4972391;28;20043;-71
2022/11/14 01:00:27;;;;;;;83.32;15.55;;;;;;;1.65;100.00;95523.00;5000023;28;20420;-71
2022/11/14 01:02:55;;;;;;;62.03;13.68;;;;;;;1.80;100.00;95530.47;4992813;28;20081;-70
2022/11/14 01:05:22;;;;;;;42.17;14.32;;;;;;;1.61;100.00;95534.78;4972533;28;20042;-71
2022/11/14 01:07:48;;;;;;;48.60;13.40;;;;;;;1.68;100.00;95527.75;4988657;28;20054;-71
2022/11/14 01:10:15;;;;;;;68.10;14.40;;;;;;;1.55;100.00;95526.88;4988457;28;20043;-72
2022/11/14 01:12:40;;;;;;;92.18;13.90;;;;;;;1.47;100.00;95527.13;4989710;28;20050;-72
2022/11/14 01:15:07;;;;;;;82.30;13.52;;;;;;;1.51;100.00;95528.28;4982967;28;20407;-72
2022/11/14 01:17:32;;;;;;;76.22;12.43;;;;;;;1.44;100.00;95535.34;4985556;28;20058;-72
2022/11/14 01:19:58;;;;;;;46.42;11.95;;;;;;;1.47;100.00;95537.50;4986441;28;20064;-71
2022/11/14 01:22:23;;;;;;;48.17;12.50;;;;;;;1.45;100.00;95539.53;4992750;28;20423;-72
2022/11/14 01:24:49;;;;;;;76.38;13.23;;;;;;;1.42;100.00;95533.94;4971306;28;20042;-71
2022/11/14 01:27:14;;;;;;;33.40;11.25;;;;;;;1.44;100.00;95532.75;4979328;28;20528;-71
2022/11/14 01:29:40;;;;;;;48.50;11.57;;;;;;;1.42;100.00;95534.72;4996878;28;20045;-71
2022/11/14 01:32:06;;;;;;;36.65;11.10;;;;;;;1.31;100.00;95538.81;4996433;28;20045;-71
2022/11/14 01:34:31;;;;;;;60.47;12.43;;;;;;;1.30;100.00;95541.63;4973227;28;20055;-71
2022/11/14 01:36:57;;;;;;;36.63;12.27;;;;;;;1.43;100.00;95541.50;4975131;28;20042;-71
2022/11/14 01:39:22;;;;;;;96.25;13.55;;;;;;;1.34;100.00;95532.41;4999132;28;20038;-70
2022/11/14 01:41:48;;;;;;;47.55;11.23;;;;;;;1.36;100.00;95517.44;5001226;28;20046;-71
2022/11/14 01:44:39;;;;;;;52.55;11.25;;;;;;;1.35;100.00;95510.66;4999030;28;20042;-71
2022/11/14 01:47:05;;;;;;;43.35;10.82;;;;;;;1.34;100.00;95501.31;4987444;28;20076;-70
2022/11/14 01:49:38;;;;;;;36.22;11.85;;;;;;;1.35;100.00;95508.06;4990957;28;20520;-72
2022/11/14 01:52:16;;;;;;;34.60;11.02;;;;;;;1.40;100.00;95503.03;4978275;28;20423;-72
2022/11/14 01:54:48;;;;;;;41.15;10.70;;;;;;;1.38;100.00;95507.66;4996439;28;20050;-71
2022/11/14 01:57:18;;;;;;;35.85;11.00;;;;;;;1.40;100.00;95500.44;4981204;28;20069;-71
2022/11/14 01:59:50;;;;;;;49.80;10.82;;;;;;;1.45;100.00;95508.41;4998550;28;20042;-71
2022/11/14 02:02:24;;;;;;;39.55;11.50;;;;;;;1.48;100.00;95507.97;4986311;28;20069;-71
2022/11/14 02:05:02;;;;;;;53.58;12.63;;;;;;;1.52;100.00;95509.16;4988088;28;20412;-71
2022/11/14 02:07:33;;;;;;;81.20;13.52;;;;;;;1.49;100.00;95503.56;4983132;28;20736;-71
2022/11/14 02:10:02;;;;;;;56.05;12.13;;;;;;;1.64;100.00;95495.47;4972090;28;20055;-70
2022/11/14 02:12:28;;;;;;;57.35;13.95;;;;;;;1.69;100.00;95493.03;4984753;28;20043;-71
2022/11/14 02:14:56;;;;;;;42.95;13.35;;;;;;;1.70;100.00;95489.44;4982611;28;20047;-70
2022/11/14 02:17:23;;;;;;;42.95;12.45;;;;;;;1.73;100.00;95483.81;4973140;28;20121;-70
2022/11/14 02:19:56;;;;;;;75.28;13.65;;;;;;;1.69;100.00;95490.44;4990391;28;20041;-71
2022/11/14 02:22:22;;;;;;;53.40;13.20;;;;;;;1.85;100.00;95486.50;4996483;28;20218;-70
2022/11/14 02:24:48;;;;;;;39.75;14.05;;;;;;;1.78;100.00;95496.13;4971012;28;20043;-71
2022/11/14 02:27:14;;;;;;;36.22;13.77;;;;;;;1.82;100.00;95487.72;4989139;28;20401;-71
2022/11/14 02:29:39;;;;;;;49.35;15.85;;;;;;;1.72;100.00;95495.19;4990337;28;20050;-71
2022/11/14 02:32:05;;;;;;;50.05;16.17;;;;;;;1.68;100.00;95507.00;4990092;28;20101;-71
2022/11/14 02:34:31;;;;;;;35.40;14.52;;;;;;;1.69;100.00;95513.78;4976857;28;20054;-71
2022/11/14 02:36:57;;;;;;;33.60;14.18;;;;;;;1.74;100.00;95516.53;5002075;28;20038;-71
2022/11/14 02:39:22;;;;;;;37.17;13.55;;;;;;;1.69;100.00;95513.78;4989490;28;20096;-71
2022/11/14 02:41:51;;;;;;;34.78;14.07;;;;;;;1.56;100.00;95507.69;4995083;28;20415;-71
2022/11/14 02:44:18;;;;;;;34.25;13.25;;;;;;;1.61;100.00;95495.88;5011928;28;20419;-72
2022/11/14 02:46:43;;;;;;;36.88;13.07;;;;;;;1.54;100.00;95490.78;4968355;28;20416;-71
2022/11/14 02:49:09;;;;;;;45.92;12.57;;;;;;;1.54;100.00;95494.16;4976214;28;20050;-72
2022/11/14 02:51:35;;;;;;;46.28;12.70;;;;;;;1.49;100.00;95481.00;4984482;28;20038;-72
2022/11/14 02:54:00;;;;;;;26.50;12.00;;;;;;;1.54;100.00;95470.81;4989399;28;20038;-72
2022/11/14 02:56:26;;;;;;;39.40;12.73;;;;;;;1.53;100.00;95469.22;4984746;28;20157;-72
2022/11/14 02:58:51;;;;;;;28.13;11.77;;;;;;;1.56;100.00;95462.81;4993233;28;20559;-71
2022/11/14 03:01:17;;;;;;;29.00;11.75;;;;;;;1.39;100.00;95447.00;4980039;28;20045;-72
2022/11/14 03:03:42;;;;;;;32.67;12.38;;;;;;;1.51;100.00;95460.88;5002964;28;20420;-72
2022/11/14 03:06:08;;;;;;;29.88;12.35;;;;;;;1.40;100.00;95458.19;4982482;28;20070;-71
2022/11/14 03:08:34;;;;;;;25.58;10.52;;;;;;;1.43;100.00;95458.53;4993140;28;20043;-71
2022/11/14 03:11:07;;;;;;;36.97;11.18;;;;;;;1.48;100.00;95460.47;5001067;28;20093;-71
2022/11/14 03:13:34;;;;;;;28.10;11.23;;;;;;;1.53;100.00;95453.66;4977043;28;20447;-71
2022/11/14 03:16:07;;;;;;;23.30;11.23;;;;;;;1.40;100.00;95443.41;4993372;28;20121;-71
2022/11/14 03:18:32;;;;;;;21.73;10.00;;;;;;;1.40;100.00;95455.59;4976790;28;20057;-71
2022/11/14 03:21:04;;;;;;;23.20;10.35;;;;;;;1.34;100.00;95465.00;4977793;28;20042;-71
2022/11/14 03:23:29;;;;;;;26.67;10.25;;;;;;;1.41;100.00;95460.56;4984588;28;20052;-71
2022/11/14 03:25:59;;;;;;;24.92;11.13;;;;;;;1.36;100.00;95457.78;4980868;28;20043;-71
2022/11/14 03:28:24;;;;;;;25.08;10.10;;;;;;;1.43;100.00;95457.75;4989381;28;20050;-71
2022/11/14 03:30:50;;;;;;;29.70;10.75;;;;;;;1.43;100.00;95458.53;4993493;28;20041;-71
2022/11/14 03:33:15;;;;;;;24.35;10.52;;;;;;;1.41;100.00;95455.38;4993152;28;20038;-72
2022/11/14 03:35:42;;;;;;;89.65;10.50;;;;;;;1.22;100.00;95446.72;5010483;28;20415;-71
2022/11/14 03:38:07;;;;;;;42.15;10.27;;;;;;;1.27;100.00;95459.06;4986968;28;20049;-72
2022/11/14 03:40:33;;;;;;;37.45;11.10;;;;;;;1.30;100.00;95453.47;4973886;28;20039;-71
2022/11/14 03:42:58;;;;;;;36.33;10.80;;;;;;;1.30;100.00;95445.69;4983973;28;20038;-72
2022/11/14 03:45:24;;;;;;;34.85;10.43;;;;;;;1.30;100.00;95443.09;5000227;28;20167;-70
2022/11/14 03:47:49;;;;;;;26.85;11.23;;;;;;;1.31;100.00;95455.06;4981314;28;20495;-71
2022/11/14 03:50:15;;;;;;;24.70;10.13;;;;;;;1.24;100.00;95464.69;4987751;28;20100;-72
2022/11/14 03:52:41;;;;;;;43.70;12.05;;;;;;;1.25;100.00;95476.63;4982684;28;20038;-72
2022/11/14 03:55:07;;;;;;;37.92;11.27;;;;;;;1.30;100.00;95479.38;4976376;28;20058;-72
2022/11/14 03:57:32;;;;;;;58.75;11.80;;;;;;;1.13;100.00;95472.13;4982045;28;20519;-71
2022/11/14 03:59:58;;;;;;;65.10;11.95;;;;;;;1.10;100.00;95467.34;4973489;28;20053;-72
2022/11/14 04:02:23;;;;;;;100.55;11.15;;;;;;;0.99;100.00;95457.66;4986362;28;20047;-71
2022/11/14 04:04:49;;;;;;;71.95;10.35;;;;;;;1.00;100.00;95461.84;4982991;28;20058;-71
2022/11/14 04:07:14;;;;;;;65.40;10.95;;;;;;;1.00;100.00;95460.03;4980889;28;20046;-71
2022/11/14 04:09:39;;;;;;;41.42;9.80;;;;;;;1.03;100.00;95480.38;4985080;28;20039;-71
2022/11/14 04:12:05;;;;;;;55.85;10.82;;;;;;;1.02;100.00;95493.53;4990424;28;20050;-72
2022/11/14 04:14:30;;;;;;;41.50;9.55;;;;;;;0.99;100.00;95483.56;4981053;28;20049;-70
2022/11/14 04:16:56;;;;;;;38.05;10.38;;;;;;;1.03;100.00;95469.19;4983574;28;20035;-69
2022/11/14 04:19:21;;;;;;;28.70;9.68;;;;;;;1.00;100.00;95467.03;4980744;28;20046;-68
2022/11/14 04:21:47;;;;;;;37.60;9.30;;;;;;;0.99;100.00;95457.66;4991656;28;20049;-68
2022/11/14 04:24:12;;;;;;;20.42;9.20;;;;;;;1.00;100.00;95469.63;4996765;28;20110;-69
2022/11/14 04:26:38;;;;;;;48.05;9.88;;;;;;;0.89;100.00;95475.47;4976698;28;20050;-69
2022/11/14 04:29:03;;;;;;;24.30;9.02;;;;;;;0.93;100.00;95480.03;4976677;28;20046;-69
2022/11/14 04:31:29;;;;;;;39.75;10.90;;;;;;;0.96;100.00;95473.63;4978724;28;20481;-69
2022/11/14 04:33:54;;;;;;;29.52;10.23;;;;;;;0.96;100.00;95474.44;5003145;28;20046;-69
2022/11/14 04:36:20;;;;;;;51.22;10.85;;;;;;;0.98;100.00;95464.66;4974931;28;20113;-69
2022/11/14 04:38:45;;;;;;;42.55;10.77;;;;;;;1.10;100.00;95462.16;4991519;28;20042;-68
2022/11/14 04:41:11;;;;;;;57.53;11.93;;;;;;;1.12;100.00;95452.41;4980232;28;20540;-69
2022/11/14 04:43:36;;;;;;;37.38;11.25;;;;;;;1.14;100.00;95452.97;4992609;28;20550;-69
2022/11/14 04:46:02;;;;;;;30.55;10.48;;;;;;;1.12;100.00;95457.59;4982876;28;20047;-69
2022/11/14 04:48:27;;;;;;;35.67;11.23;;;;;;;1.11;100.00;95463.78;4987163;28;20064;-69
2022/11/14 04:50:53;;;;;;;33.90;10.48;;;;;;;1.09;100.00;95467.56;4989758;28;20042;-69
2022/11/14 04:53:18;;;;;;;32.05;10.23;;;;;;;0.98;100.00;95463.88;4991135;28;20143;-69
2022/11/14 04:55:44;;;;;;;66.95;10.75;;;;;;;0.93;100.00;95469.66;5000005;28;20054;-69
2022/11/14 04:58:10;;;;;;;39.20;11.38;;;;;;;1.01;100.00;95468.63;5004922;28;20471;-69
2022/11/14 05:00:35;;;;;;;40.92;10.70;;;;;;;0.97;100.00;95476.00;4989175;28;20035;-70
2022/11/14 05:03:01;;;;;;;32.25;10.65;;;;;;;0.95;100.00;95466.84;4990839;28;20539;-69
2022/11/14 05:05:26;;;;;;;54.50;11.25;;;;;;;0.94;100.00;95460.09;4997660;28;20045;-70
2022/11/14 05:07:53;;;;;;;49.95;10.98;;;;;;;0.80;100.00;95455.00;4992443;28;20047;-70
2022/11/14 05:10:18;;;;;;;74.07;9.80;;;;;;;0.86;100.00;95454.16;4975758;28;20597;-69
2022/11/14 05:12:44;;;;;;;151.05;10.90;;;;;;;0.69;100.00;95447.91;4985965;28;20054;-70
2022/11/14 05:15:10;;;;;;;111.20;10.75;;;;;;;0.42;100.00;95448.03;4994317;28;20041;-69
2022/11/14 05:17:35;;;;;;;106.60;9.68;;;;;;;0.33;100.00;95444.88;4992816;28;20043;-69
2022/11/14 05:20:01;;;;;;;76.85;10.32;;;;;;;0.33;100.00;95449.25;4991190;28;20042;-69
2022/11/14 05:22:26;;;;;;;68.57;10.20;;;;;;;0.34;100.00;95461.22;4994055;28;20098;-69
2022/11/14 05:24:52;;;;;;;92.53;10.35;;;;;;;0.23;100.00;95444.53;5000692;28;20548;-69
2022/11/14 05:27:17;;;;;;;49.08;9.27;;;;;;;0.21;100.00;95456.09;4999961;28;20053;-70
2022/11/14 05:29:42;;;;;;;52.03;10.02;;;;;;;0.25;100.00;95449.50;5005560;28;20076;-69
2022/11/14 05:32:08;;;;;;;64.30;9.52;;;;;;;0.16;100.00;95444.56;4987938;28;20058;-70
2022/11/14 05:34:33;;;;;;;96.28;9.70;;;;;;;0.16;100.00;95454.91;4975531;28;20050;-70
2022/11/14 05:36:59;;;;;;;48.03;8.75;;;;;;;0.15;100.00;95453.31;4990614;28;20128;-70
2022/11/14 05:39:24;;;;;;;49.95;8.73;;;;;;;-0.03;100.00;95451.41;4989731;28;20049;-70
2022/11/14 05:41:50;;;;;;;50.95;8.55;;;;;;;-0.02;100.00;95457.34;4987358;28;20488;-70
2022/11/14 05:44:16;;;;;;;42.80;8.07;;;;;;;-0.11;100.00;95456.78;4991171;28;20128;-69
2022/11/14 05:46:41;;;;;;;28.27;7.88;;;;;;;-0.11;100.00;95479.28;4999184;28;20400;-70
2022/11/14 05:49:06;;;;;;;28.23;8.38;;;;;;;-0.12;100.00;95482.84;5000334;28;20034;-70
2022/11/14 05:51:32;;;;;;;22.90;8.25;;;;;;;-0.02;100.00;95480.63;4999119;28;20088;-70
2022/11/14 05:53:57;;;;;;;29.17;8.15;;;;;;;0.04;100.00;95477.22;4990912;28;20049;-70
2022/11/14 05:56:23;;;;;;;27.10;7.93;;;;;;;-0.04;100.00;95485.25;4983313;28;20113;-70
2022/11/14 05:58:48;;;;;;;18.85;9.00;;;;;;;-0.09;100.00;95495.38;4991077;28;20046;-70
2022/11/14 06:01:17;;;;;;;21.40;8.40;;;;;;;-0.03;100.00;95502.31;4988729;28;20058;-70
2022/11/14 06:03:44;;;;;;;19.85;8.73;;;;;;;-0.05;100.00;95494.78;4988823;28;20061;-70
2022/11/14 06:06:14;;;;;;;29.48;8.20;;;;;;;-0.04;100.00;95495.59;4996053;28;20038;-70
2022/11/14 06:08:40;;;;;;;20.48;7.82;;;;;;;-0.01;100.00;95500.34;4987443;28;20081;-70
2022/11/14 06:11:12;;;;;;;27.98;8.00;;;;;;;-0.03;100.00;95507.50;4988977;28;20037;-70
2022/11/14 06:13:37;;;;;;;20.08;8.30;;;;;;;-0.02;100.00;95515.06;4983944;28;20492;-70
2022/11/14 06:16:06;;;;;;;26.17;8.15;;;;;;;0.05;100.00;95520.22;4982792;28;20117;-70
2022/11/14 06:18:32;;;;;;;18.88;8.02;;;;;;;0.11;100.00;95513.44;4971391;28;20069;-70
2022/11/14 06:21:00;;;;;;;18.38;7.88;;;;;;;0.08;100.00;95509.47;4970762;28;20046;-70
2022/11/14 06:23:26;;;;;;;22.58;8.32;;;;;;;-0.02;100.00;95509.09;4989741;28;20046;-69
2022/11/14 06:25:51;;;;;;;19.42;7.25;;;;;;;-0.01;100.00;95510.69;4985400;28;20065;-69
2022/11/14 06:28:17;;;;;;;21.38;10.25;;;;;;;0.02;100.00;95504.34;4986717;28;20496;-70
2022/11/14 06:30:42;;;;;;;21.38;8.95;;;;;;;0.01;100.00;95513.88;4986471;28;20055;-69
2022/11/14 06:33:08;;;;;;;25.30;11.80;;;;;;;0.07;100.00;95502.72;4992927;28;20046;-69
2022/11/14 06:35:34;;;;;;;22.15;9.30;;;;;;;0.06;100.00;95506.31;4991370;28;20053;-70
2022/11/14 06:37:59;;;;;;;18.33;7.68;;;;;;;0.05;100.00;95507.28;4992272;28;20050;-69
2022/11/14 06:40:25;;;;;;;20.20;7.65;;;;;;;0.06;100.00;95506.31;4990611;28;20456;-71
2022/11/14 06:42:54;;;;;;;14.18;7.55;;;;;;;0.07;100.00;95502.72;4975198;28;20444;-69
2022/11/14 06:45:19;;;;;;;14.90;6.85;;;;;;;0.09;100.00;95500.72;4990850;28;20057;-71
2022/11/14 06:47:45;;;;;;;14.70;7.05;;;;;;;0.05;100.00;95499.53;4986559;28;20149;-69
2022/11/14 06:50:10;;;;;;;14.00;7.10;;;;;;;0.11;100.00;95509.06;4982512;28;20054;-69
2022/11/14 06:52:36;;;;;;;15.95;8.20;;;;;;;0.15;100.00;95515.41;4971918;28;20452;-68
2022/11/14 06:55:02;;;;;;;17.55;8.38;;;;;;;0.21;100.00;95518.22;4984224;28;20051;-68
2022/11/14 06:57:27;;;;;;;14.70;7.38;;;;;;;0.22;100.00;95512.03;4995580;28;20046;-68
2022/11/14 06:59:53;;;;;;;16.73;8.35;;;;;;;0.27;100.00;95501.84;4988887;28;20042;-68
2022/11/14 07:02:18;;;;;;;16.85;7.95;;;;;;;0.23;100.00;95501.47;4990412;28;20500;-68
2022/11/14 07:04:44;;;;;;;16.95;8.07;;;;;;;0.24;100.00;95504.84;4983413;28;20105;-71
2022/11/14 07:07:09;;;;;;;15.57;7.07;;;;;;;0.22;100.00;95504.28;4989405;28;20117;-68
2022/11/14 07:09:35;;;;;;;15.70;7.95;;;;;;;0.20;100.00;95501.88;4977667;28;20046;-67
2022/11/14 07:12:00;;;;;;;18.05;8.20;;;;;;;0.23;100.00;95495.50;4995147;28;20419;-69
2022/11/14 07:14:27;;;;;;;15.70;7.03;;;;;;;0.29;100.00;95505.06;4981325;28;20507;-68
2022/11/14 07:16:53;;;;;;;15.20;6.65;;;;;;;0.30;100.00;95496.25;5000628;28;20049;-69
2022/11/14 07:19:18;;;;;;;15.95;7.22;;;;;;;0.33;100.00;95501.03;4991986;28;20042;-68
2022/11/14 07:21:44;;;;;;;15.25;7.63;;;;;;;0.36;100.00;95500.66;4985018;28;20051;-69
2022/11/14 07:24:09;;;;;;;17.98;7.88;;;;;;;0.42;100.00;95505.00;4976631;28;20038;-67
2022/11/14 07:26:35;;;;;;;12.30;6.75;;;;;;;0.42;100.00;95515.34;4976519;28;20047;-68
2022/11/14 07:29:00;;;;;;;17.27;8.63;;;;;;;0.49;100.00;95525.69;4987645;28;20055;-68
2022/11/14 07:31:26;;;;;;;25.73;9.88;;;;;;;0.54;100.00;95514.72;5001921;28;20515;-67
2022/11/14 07:33:51;;;;;;;25.90;9.65;;;;;;;0.66;100.00;95520.81;4998771;28;20053;-67
2022/11/14 07:36:17;;;;;;;22.27;10.32;;;;;;;0.77;100.00;95516.78;4973876;28;20051;-69
2022/11/14 07:38:43;;;;;;;22.88;9.88;;;;;;;0.85;100.00;95514.75;4986617;28;20572;-68
2022/11/14 07:41:14;;;;;;;21.42;10.38;;;;;;;0.92;100.00;95508.72;4992696;28;20043;-67
2022/11/14 07:43:40;;;;;;;20.77;9.88;;;;;;;0.93;100.00;95505.16;4982262;28;20101;-67
2022/11/14 07:46:16;;;;;;;24.33;10.63;;;;;;;0.96;100.00;95515.09;4997079;28;20045;-67
2022/11/14 07:48:42;;;;;;;25.63;11.13;;;;;;;1.16;100.00;95520.94;4992387;28;20505;-67
2022/11/14 07:51:14;;;;;;;27.92;11.27;;;;;;;1.16;100.00;95505.38;4990822;28;20050;-67
2022/11/14 07:53:40;;;;;;;24.35;9.50;;;;;;;1.28;100.00;95492.56;4981317;28;20046;-67
2022/11/14 07:56:09;;;;;;;25.92;10.48;;;;;;;1.36;100.00;95499.28;4990521;28;20056;-67
2022/11/14 07:58:37;;;;;;;30.63;10.75;;;;;;;1.43;100.00;95489.66;4984729;28;20054;-67
2022/11/14 08:01:04;;;;;;;23.05;9.23;;;;;;;1.55;100.00;95497.53;4974001;28;20160;-67
2022/11/14 08:03:30;;;;;;;18.33;8.85;;;;;;;1.55;100.00;95498.34;4980385;28;20053;-67
2022/11/14 08:06:04;;;;;;;17.83;9.27;;;;;;;1.70;100.00;95486.84;4989863;28;20046;-68
2022/11/14 08:08:29;;;;;;;19.40;10.25;;;;;;;1.80;100.00;95481.94;4994913;28;20045;-67
2022/11/14 08:10:57;;;;;;;20.63;9.30;;;;;;;1.90;100.00;95474.47;4988440;28;20050;-67
2022/11/14 08:13:23;;;;;;;17.08;8.57;;;;;;;1.97;100.00;95476.19;4992394;28;20700;-67
2022/11/14 08:15:48;;;;;;;20.05;8.82;;;;;;;2.10;100.00;95483.84;4981805;28;20069;-67
2022/11/14 08:18:14;;;;;;;19.40;9.80;;;;;;;2.13;100.00;95478.22;4992739;28;20046;-68
2022/11/14 08:20:39;;;;;;;20.75;10.07;;;;;;;2.15;100.00;95460.63;4991973;28;20583;-67
2022/11/14 08:23:06;;;;;;;20.77;9.75;;;;;;;2.12;100.00;95455.09;4990860;28;20145;-68
2022/11/14 08:25:31;;;;;;;19.55;9.75;;;;;;;2.02;100.00;95450.38;4975339;28;20046;-68
2022/11/14 08:27:57;;;;;;;18.88;9.73;;;;;;;2.16;100.00;95456.25;4973815;28;20045;-68
2022/11/14 08:30:23;;;;;;;18.92;10.02;;;;;;;2.22;100.00;95450.94;4993247;28;21626;-68
2022/11/14 08:32:48;;;;;;;21.63;10.10;;;;;;;2.25;100.00;95444.53;4980807;28;20050;-67
2022/11/14 08:35:14;;;;;;;19.63;9.63;;;;;;;2.38;100.00;95448.78;4993735;28;20042;-68
2022/11/14 08:37:39;;;;;;;22.00;10.27;;;;;;;2.57;100.00;95455.53;4993507;28;20050;-68
2022/11/14 08:40:05;;;;;;;20.20;9.07;;;;;;;2.80;100.00;95461.81;4992102;28;20045;-68
2022/11/14 08:42:31;;;;;;;19.73;9.80;;;;;;;2.80;100.00;95459.22;4986470;28;20484;-67
2022/11/14 08:44:56;;;;;;;18.13;9.75;;;;;;;2.78;100.00;95461.25;4976233;28;20485;-68
2022/11/14 08:47:22;;;;;;;22.00;10.82;;;;;;;2.87;100.00;95459.13;4985691;28;20050;-68
2022/11/14 08:49:47;;;;;;;19.45;10.23;;;;;;;3.08;100.00;95468.25;4984532;28;20042;-67
2022/11/14 08:52:13;;;;;;;21.75;11.55;;;;;;;2.98;100.00;95468.00;4983921;28;20043;-67
2022/11/14 08:54:38;;;;;;;23.95;11.20;;;;;;;2.97;100.00;95477.59;4994807;28;20046;-68
2022/11/14 08:57:05;;;;;;;24.30;11.25;;;;;;;2.98;100.00;95473.97;4982053;28;20050;-68
2022/11/14 08:59:31;;;;;;;28.25;11.40;;;;;;;3.06;100.00;95462.47;4972577;28;20093;-68
2022/11/14 09:01:57;;;;;;;21.65;10.80;;;;;;;3.18;100.00;95468.50;4988752;28;20488;-68
2022/11/14 09:04:22;;;;;;;23.05;11.38;;;;;;;3.23;100.00;95450.41;4986882;28;20062;-68
2022/11/14 09:06:48;;;;;;;31.30;10.70;;;;;;;3.48;100.00;95449.41;4972364;28;20042;-68
2022/11/14 09:09:13;;;;;;;23.15;10.82;;;;;;;3.62;100.00;95437.75;4987937;28;20062;-68
2022/11/14 09:11:39;;;;;;;22.63;10.07;;;;;;;3.75;100.00;95441.13;4998888;28;20064;-68
2022/11/14 09:14:06;;;;;;;20.75;10.43;;;;;;;3.89;100.00;95444.31;4992164;28;20604;-68
2022/11/14 09:16:32;;;;;;;21.13;10.27;;;;;;;4.05;100.00;95455.84;4992025;28;20566;-68
2022/11/14 09:18:58;;;;;;;23.17;11.10;;;;;;;4.17;100.00;95459.22;4983341;28;20413;-67
2022/11/14 09:21:24;;;;;;;22.23;10.27;;;;;;;4.29;100.00;95459.19;4980639;28;20053;-68
2022/11/14 09:23:49;;;;;;;20.27;10.57;;;;;;;4.34;100.00;95460.09;4983468;28;20058;-68
2022/11/14 09:26:17;;;;;;;19.10;9.80;;;;;;;4.52;100.00;95450.50;4975699;28;20062;-68
2022/11/14 09:28:42;;;;;;;20.35;10.32;;;;;;;4.76;100.00;95455.66;4991516;28;20430;-68
2022/11/14 09:31:10;;;;;;;22.55;9.57;;;;;;;5.33;100.00;95447.72;4989986;28;20038;-68
2022/11/14 09:33:36;;;;;;;21.83;9.80;;;;;;;6.09;100.00;95450.91;4985453;28;20101;-67
2022/11/14 09:36:05;;;;;;;26.77;9.45;;;;;;;6.86;100.00;95454.41;4991618;28;20133;-69
2022/11/14 09:38:30;;;;;;;22.48;8.70;;;;;;;7.33;100.00;95464.25;5000127;28;20034;-71
2022/11/14 09:41:23;;;;;;;20.95;9.88;;;;;;;7.34;100.00;95465.84;4990410;28;20038;-67
2022/11/14 09:44:07;;;;;;;24.38;9.05;;;;;;;8.25;100.00;95464.03;4990942;28;20125;-68
2022/11/14 09:46:43;;;;;;;23.00;9.02;;;;;;;8.49;100.00;95474.94;4994278;28;20054;-68
2022/11/14 09:49:27;;;;;;;18.40;8.88;;;;;;;9.94;100.00;95469.84;4985138;28;20471;-69
2022/11/14 09:52:00;;;;;;;18.02;8.18;;;;;;;11.08;100.00;95465.75;4981018;28;20089;-68
2022/11/14 09:54:41;;;;;;;26.65;8.00;;;;;;;10.66;100.00;95453.84;4998806;28;20658;-68
2022/11/14 09:57:15;;;;;;;30.85;8.40;;;;;;;11.20;100.00;95453.00;4992595;28;20050;-68
2022/11/14 09:59:40;;;;;;;20.05;8.27;;;;;;;12.01;100.00;95454.47;5003068;28;20119;-68
2022/11/14 10:02:36;;;;;;;21.73;8.68;;;;;;;11.40;100.00;95467.88;4987205;28;20484;-69
2022/11/14 10:05:15;;;;;;;18.88;8.18;;;;;;;13.03;98.51;95462.22;4971345;28;20038;-69
2022/11/14 10:08:19;;;;;;;22.02;8.50;;;;;;;11.89;100.00;95474.06;4980457;28;20058;-69
2022/11/14 10:10:53;;;;;;;12.80;7.85;;;;;;;13.23;96.46;95471.72;4992907;28;20059;-68
2022/11/14 10:13:37;;;;;;;14.68;7.78;;;;;;;13.80;92.71;95469.03;4982135;28;20054;-68
2022/11/14 10:16:14;;;;;;;16.95;8.45;;;;;;;14.64;85.26;95460.09;4970468;28;20053;-68
2022/11/14 10:19:05;;;;;;;16.13;8.02;;;;;;;13.93;86.88;95457.69;4980739;28;20057;-67
2022/11/14 10:21:55;;;;;;;16.65;9.27;;;;;;;15.02;82.56;95459.81;4988784;28;20089;-66
2022/11/14 10:24:27;;;;;;;15.38;9.07;;;;;;;14.99;76.73;95457.00;4989147;28;20034;-66
2022/11/14 10:27:04;;;;;;;22.17;9.50;;;;;;;13.29;82.20;95460.81;4986753;28;20042;-66
2022/11/14 10:29:45;;;;;;;19.45;9.52;;;;;;;15.80;77.63;95452.75;4990084;28;20042;-67
2022/11/14 10:32:49;;;;;;;22.00;11.48;;;;;;;16.26;68.86;95451.56;4976537;28;20047;-66
2022/11/14 10:35:22;;;;;;;22.52;10.27;;;;;;;16.66;65.72;95454.19;4986283;28;20042;-66
2022/11/14 10:38:11;;;;;;;21.63;10.80;;;;;;;16.17;67.11;95453.41;4992404;28;20062;-67
2022/11/14 10:40:52;;;;;;;20.75;11.20;;;;;;;16.68;68.32;95452.03;4979567;28;20050;-67
2022/11/14 10:43:31;;;;;;;23.10;11.05;;;;;;;17.01;66.48;95438.34;4984357;28;20039;-66
2022/11/14 10:46:09;;;;;;;19.35;11.65;;;;;;;17.21;62.62;95441.47;4971029;28;20050;-67
2022/11/14 10:48:38;;;;;;;18.65;10.50;;;;;;;17.33;69.74;95443.50;4971361;28;20051;-66
2022/11/14 10:51:17;;;;;;;25.40;10.50;;;;;;;17.95;63.13;95443.09;4971357;28;20105;-66
2022/11/14 10:53:59;;;;;;;16.35;9.25;;;;;;;18.35;59.63;95455.34;4988304;28;20048;-66
2022/11/14 10:56:25;;;;;;;16.67;10.02;;;;;;;16.28;61.09;95455.50;4986526;28;20050;-67
2022/11/14 10:58:50;;;;;;;20.75;9.80;;;;;;;16.79;59.35;95463.13;4986226;28;20050;-66
2022/11/14 11:01:52;;;;;;;18.52;10.00;;;;;;;17.73;65.82;95468.03;4989997;28;20046;-67
2022/11/14 11:04:30;;;;;;;21.08;8.85;;;;;;;18.70;54.81;95465.81;4914057;29;20048;-68
2022/11/14 11:12:51;;;;;;;18.58;10.60;;;;;;;17.77;56.17;95463.63;4984101;28;20050;-68
2022/11/14 11:15:27;;;;;;;16.48;10.90;;;;;;;17.80;58.89;95463.00;4992315;28;20129;-69
2022/11/14 11:18:22;;;;;;;16.65;10.20;;;;;;;18.16;60.00;95467.16;4976173;28;20113;-68
2022/11/14 11:21:00;;;;;;;;;;;;;;;18.85;55.87;95470.59;4965131;28;20048;-69
2022/11/14 11:23:26;;;;;;;19.95;10.23;;;;;;;18.65;52.79;95474.00;4982751;28;20330;-69
2022/11/14 11:26:08;;;;;;;20.42;10.20;;;;;;;17.67;55.86;95485.25;4981239;28;20244;-69
2022/11/14 11:28:36;;;;;;;23.20;10.90;;;;;;;19.18;54.75;95485.16;4987579;28;20660;-69
2022/11/14 11:31:07;;;;;;;15.73;10.43;;;;;;;19.66;49.46;95475.03;4991288;28;20415;-68